This is the latest recevied weather packets stored in our database for station/object AH6GR. If no packets are shown the sender has not sent any weather packets the latest 1 day(s).
| Time | Temp. | Humidity | Pressure | Rain* | Wind** | Luminosity | Snow |
|---|---|---|---|---|---|---|---|
| 1778033433 | 24.44° C | 83% | 1014.1 hPa | 0 mm | - | - | - |
| 1778032833 | 23.89° C | 84% | 1014.1 hPa | 0 mm | - | - | - |
| 1778032233 | 23.89° C | 84% | 1014.3 hPa | 0 mm | - | - | - |
| 1778031633 | 23.89° C | 84% | 1014.3 hPa | 0 mm | - | - | - |
| 1778031033 | 23.89° C | 83% | 1014.4 hPa | 0 mm | - | - | - |
| 1778031019 | 23.33° C | 84% | 1013.4 hPa | 0 mm | - | - | - |
| 1778030433 | 23.89° C | 84% | 1014.4 hPa | 0 mm | - | - | - |
| 1778030166 | 23.89° C | 85% | 1013.6 hPa | 0 mm | - | - | - |
| 1778029246 | 23.89° C | 83% | 1013.7 hPa | 0 mm | - | - | - |
| 1778028633 | 24.44° C | 82% | 1014.8 hPa | 0 mm | - | - | - |
| 1778028309 | 23.89° C | 83% | 1013.9 hPa | 0 mm | - | - | - |
| 1778028033 | 24.44° C | 82% | 1014.9 hPa | 0 mm | - | - | - |
| 1778027477 | 23.89° C | 82% | 1014.1 hPa | 0 mm | - | - | - |
| 1778027433 | 24.44° C | 82% | 1015.1 hPa | 0 mm | - | - | - |
| 1778026833 | 24.44° C | 83% | 1015.1 hPa | 0 mm | - | - | - |
| 1778026537 | 23.89° C | 82% | 1014.2 hPa | 0 mm | - | - | - |
| 1778025033 | 23.89° C | 83% | 1015.4 hPa | 0 mm | - | - | - |
| 1778022051 | 23.89° C | 81% | 1015 hPa | 0 mm | - | - | - |
| 1778021433 | 25° C | 78% | 1016.1 hPa | 0 mm | - | - | - |
| 1778021130 | 25° C | 78% | 1015.1 hPa | 0 mm | - | - | - |
| 1778020833 | 25.56° C | 79% | 1016.3 hPa | 0 mm | - | - | - |
| 1778020233 | 25° C | 79% | 1016.2 hPa | 0 mm | - | - | - |
| 1778019342 | 24.44° C | 81% | 1015.3 hPa | 0 mm | - | - | - |
| 1778018433 | 25.56° C | 78% | 1016.5 hPa | 0 mm | - | - | - |
| 1778017833 | 25° C | 80% | 1016.6 hPa | 0 mm | - | - | - |
* Rain latest hour (hover to see other rain measurements)
** Current wind speed in m/s (hover to see current wind gust speed)